Time;durP1;ratioP1;P1;durP2;ratioP2;P2;SDS_P1;SDS_P2;PMS_P1;PMS_P2;Temp;Humidity;BMP_temperature;BMP_pressure;BME280_temperature;BME280_humidity;BME280_pressure;Samples;Min_cycle;Max_cycle;Signal;HPM_P1;HPM_P2
2023/05/06 00:01:52;;;;;;;2.78;1.33;;;11.80;99.90;;;;;;4436339;32;20069;-64
2023/05/06 00:04:17;;;;;;;1.52;1.20;;;11.80;99.90;;;;;;4434863;32;20085;-64
2023/05/06 00:06:43;;;;;;;1.20;0.62;;;11.70;99.90;;;;;;4431003;32;20084;-64
2023/05/06 00:09:09;;;;;;;0.82;0.70;;;11.70;99.90;;;;;;4430943;32;20098;-64
2023/05/06 00:11:35;;;;;;;0.50;0.50;;;11.60;99.90;;;;;;4423186;32;20061;-64
2023/05/06 00:14:00;;;;;;;2.05;1.35;;;11.60;99.90;;;;;;4432299;32;20106;-64
2023/05/06 00:16:26;;;;;;;1.40;0.73;;;11.50;99.90;;;;;;4432662;32;20138;-64
2023/05/06 00:18:51;;;;;;;1.25;0.82;;;11.40;99.90;;;;;;4432101;32;20081;-64
2023/05/06 00:21:17;;;;;;;0.65;0.65;;;11.50;99.90;;;;;;4434046;32;20163;-64
2023/05/06 00:23:42;;;;;;;0.57;0.57;;;11.40;99.90;;;;;;4432682;32;20065;-64
2023/05/06 00:26:09;;;;;;;0.93;0.93;;;11.50;99.90;;;;;;4431158;32;21567;-64
2023/05/06 00:28:34;;;;;;;0.40;0.40;;;11.50;99.90;;;;;;4436963;32;20498;-64
2023/05/06 00:31:00;;;;;;;23.02;0.90;;;11.50;99.90;;;;;;4436111;32;20416;-64
2023/05/06 00:33:26;;;;;;;0.50;0.50;;;11.50;99.90;;;;;;4432925;32;20061;-64
2023/05/06 00:35:51;;;;;;;0.55;0.55;;;11.50;99.90;;;;;;4438423;32;20080;-65
2023/05/06 00:38:18;;;;;;;1.85;1.00;;;11.50;99.90;;;;;;4431721;32;20056;-64
2023/05/06 00:40:44;;;;;;;0.52;0.52;;;11.40;99.90;;;;;;4431871;32;20050;-64
2023/05/06 00:43:10;;;;;;;0.57;0.57;;;11.40;99.90;;;;;;4429665;32;20519;-64
2023/05/06 00:45:37;;;;;;;3.47;1.42;;;11.40;99.90;;;;;;4433507;32;20421;-64
2023/05/06 00:48:04;;;;;;;0.50;0.50;;;11.30;99.90;;;;;;4432171;32;20097;-64
2023/05/06 00:50:32;;;;;;;1.65;0.98;;;11.20;99.90;;;;;;4434005;32;20073;-64
2023/05/06 00:52:58;;;;;;;0.70;0.70;;;11.30;99.90;;;;;;4433767;32;20089;-64
2023/05/06 00:55:24;;;;;;;1.35;0.95;;;11.20;99.90;;;;;;4433454;32;20084;-64
2023/05/06 00:57:51;;;;;;;0.40;0.40;;;11.10;99.90;;;;;;4433827;32;20447;-65
2023/05/06 01:00:17;;;;;;;0.50;0.50;;;11.00;99.90;;;;;;4434900;32;20095;-64
2023/05/06 01:02:42;;;;;;;0.60;0.60;;;11.00;99.90;;;;;;4436265;32;20081;-64
2023/05/06 01:05:08;;;;;;;0.50;0.50;;;11.10;99.90;;;;;;4431978;32;20053;-62
2023/05/06 01:07:49;;;;;;;0.60;0.60;;;11.10;99.90;;;;;;4433110;32;20135;-64
2023/05/06 01:10:43;;;;;;;0.70;0.70;;;11.10;99.90;;;;;;4432823;32;20053;-64
2023/05/06 01:13:29;;;;;;;0.98;0.65;;;11.00;99.90;;;;;;4428939;32;20061;-65
2023/05/06 01:15:58;;;;;;;0.60;0.60;;;11.10;99.90;;;;;;4432924;32;20941;-64
2023/05/06 01:18:26;;;;;;;2.78;0.70;;;11.10;99.90;;;;;;4431721;32;20085;-64
2023/05/06 01:20:53;;;;;;;0.77;0.77;;;11.10;99.90;;;;;;4434212;32;20559;-64
2023/05/06 01:23:19;;;;;;;0.75;0.75;;;11.00;99.90;;;;;;4431652;32;20070;-64
2023/05/06 01:25:45;;;;;;;0.70;0.70;;;11.00;99.90;;;;;;4432409;32;20089;-64
2023/05/06 01:28:11;;;;;;;0.60;0.60;;;11.00;99.90;;;;;;4430349;32;20090;-64
2023/05/06 01:30:48;;;;;;;0.50;0.50;;;11.00;99.90;;;;;;4424744;32;20077;-64
2023/05/06 01:33:26;;;;;;;1.73;0.70;;;10.90;99.90;;;;;;4432152;32;20054;-64
2023/05/06 01:35:55;;;;;;;1.35;1.08;;;11.00;99.90;;;;;;4431472;32;20085;-64
2023/05/06 01:38:44;;;;;;;0.47;0.47;;;11.00;99.90;;;;;;4431226;32;20049;-64
2023/05/06 01:41:14;;;;;;;1.23;1.02;;;11.00;99.90;;;;;;4424672;32;20076;-64
2023/05/06 01:43:42;;;;;;;0.57;0.57;;;10.90;99.90;;;;;;4430594;32;20073;-64
2023/05/06 01:46:12;;;;;;;0.77;0.77;;;10.90;99.90;;;;;;4428062;32;20068;-63
2023/05/06 01:48:38;;;;;;;0.95;0.95;;;10.90;99.90;;;;;;4431462;32;20070;-64
2023/05/06 01:51:04;;;;;;;1.27;0.85;;;10.90;99.90;;;;;;4430406;32;20089;-64
2023/05/06 01:53:31;;;;;;;1.00;0.75;;;10.90;99.90;;;;;;4431297;32;20057;-64
2023/05/06 01:55:56;;;;;;;0.50;0.50;;;10.90;99.90;;;;;;4432763;32;20517;-65
2023/05/06 01:58:22;;;;;;;0.57;0.57;;;10.90;99.90;;;;;;4429323;32;20061;-64
2023/05/06 02:00:47;;;;;;;0.47;0.47;;;10.90;99.90;;;;;;4427383;32;20101;-65
2023/05/06 02:03:13;;;;;;;0.52;0.52;;;10.90;99.90;;;;;;4431151;32;20053;-63
2023/05/06 02:05:38;;;;;;;0.40;0.40;;;10.90;99.90;;;;;;4431035;32;20073;-64
2023/05/06 02:08:04;;;;;;;7.22;2.05;;;10.80;99.90;;;;;;4430558;32;20061;-63
2023/05/06 02:10:29;;;;;;;0.52;0.52;;;10.90;99.90;;;;;;4432232;32;20367;-64
2023/05/06 02:12:55;;;;;;;0.77;0.77;;;10.80;99.90;;;;;;4432415;32;20061;-64
2023/05/06 02:15:20;;;;;;;0.62;0.57;;;10.80;99.90;;;;;;4432813;32;20065;-65
2023/05/06 02:17:46;;;;;;;0.50;0.50;;;10.70;99.90;;;;;;4429935;32;20443;-65
2023/05/06 02:20:11;;;;;;;2.60;1.02;;;10.70;99.90;;;;;;4437718;32;20088;-64
2023/05/06 02:22:37;;;;;;;0.50;0.50;;;10.60;99.90;;;;;;4433425;32;20053;-64
2023/05/06 02:25:02;;;;;;;0.43;0.43;;;10.70;99.90;;;;;;4432371;32;20085;-64
2023/05/06 02:27:29;;;;;;;2.50;0.50;;;10.70;99.90;;;;;;4433678;32;20132;-64
2023/05/06 02:29:55;;;;;;;0.85;0.85;;;10.70;99.90;;;;;;4438147;32;20065;-64
2023/05/06 02:32:20;;;;;;;1.55;0.85;;;10.70;99.90;;;;;;4434094;32;20081;-65
2023/05/06 02:34:46;;;;;;;0.75;0.70;;;10.70;99.90;;;;;;4432494;32;20117;-65
2023/05/06 02:37:11;;;;;;;0.57;0.57;;;10.80;99.90;;;;;;4431711;32;20073;-64
2023/05/06 02:39:36;;;;;;;1.37;1.27;;;10.90;99.90;;;;;;4434788;32;20057;-64
2023/05/06 02:42:02;;;;;;;0.62;0.62;;;10.90;99.90;;;;;;4429135;32;20085;-64
2023/05/06 02:44:28;;;;;;;0.50;0.50;;;10.80;99.90;;;;;;4433619;32;20156;-65
2023/05/06 02:46:53;;;;;;;1.45;0.82;;;10.80;99.90;;;;;;4432493;32;20458;-64
2023/05/06 02:49:19;;;;;;;1.37;0.95;;;10.70;99.90;;;;;;4433485;32;21208;-64
2023/05/06 02:51:44;;;;;;;1.58;0.90;;;10.60;99.90;;;;;;4433365;32;20175;-65
2023/05/06 02:54:10;;;;;;;0.50;0.50;;;10.60;99.90;;;;;;4429034;32;20088;-65
2023/05/06 02:56:35;;;;;;;0.55;0.55;;;10.50;99.90;;;;;;4433770;32;20070;-64
2023/05/06 02:59:01;;;;;;;0.50;0.50;;;10.50;99.90;;;;;;4432572;32;20066;-64
2023/05/06 03:01:26;;;;;;;17.33;2.15;;;10.40;99.90;;;;;;4434251;32;20088;-64
2023/05/06 03:03:52;;;;;;;0.50;0.50;;;10.40;99.90;;;;;;4430125;32;20109;-64
2023/05/06 03:06:17;;;;;;;3.12;0.55;;;10.40;99.90;;;;;;4434370;32;20058;-65
2023/05/06 03:08:43;;;;;;;1.08;0.77;;;10.30;99.90;;;;;;4433782;32;20473;-64
2023/05/06 03:11:08;;;;;;;0.60;0.60;;;10.40;99.90;;;;;;4433741;32;20056;-64
2023/05/06 03:13:34;;;;;;;0.70;0.70;;;10.50;99.90;;;;;;4430150;32;20081;-64
2023/05/06 03:16:00;;;;;;;0.85;0.70;;;10.40;99.90;;;;;;4429864;32;20077;-64
2023/05/06 03:18:26;;;;;;;1.95;0.52;;;10.40;99.90;;;;;;4433975;32;20120;-64
2023/05/06 03:20:51;;;;;;;1.33;0.80;;;10.40;99.90;;;;;;4432113;32;20065;-64
2023/05/06 03:23:16;;;;;;;0.50;0.50;;;10.40;99.90;;;;;;4432649;32;20108;-64
2023/05/06 03:25:42;;;;;;;0.43;0.43;;;10.40;99.90;;;;;;4432100;32;20061;-64
2023/05/06 03:28:07;;;;;;;1.35;0.95;;;10.40;99.90;;;;;;4432907;32;20525;-64
2023/05/06 03:30:33;;;;;;;1.87;0.95;;;10.30;99.90;;;;;;4430946;32;20061;-64
2023/05/06 03:33:00;;;;;;;3.30;1.35;;;10.40;99.90;;;;;;4430991;32;20085;-64
2023/05/06 03:35:26;;;;;;;1.00;0.90;;;10.40;99.90;;;;;;4432853;32;20093;-64
2023/05/06 03:37:51;;;;;;;3.17;1.20;;;10.40;99.90;;;;;;4427871;32;20442;-64
2023/05/06 03:40:17;;;;;;;3.30;1.05;;;10.30;99.90;;;;;;4432171;32;20085;-64
2023/05/06 03:42:43;;;;;;;2.08;0.90;;;10.30;99.90;;;;;;4432514;32;20073;-64
2023/05/06 03:45:09;;;;;;;9.18;2.58;;;10.30;99.90;;;;;;4429023;32;20120;-64
2023/05/06 03:47:34;;;;;;;1.62;0.65;;;10.20;99.90;;;;;;4429606;32;20518;-64
2023/05/06 03:50:00;;;;;;;1.50;0.93;;;10.20;99.90;;;;;;4428919;32;20089;-64
2023/05/06 03:52:25;;;;;;;0.68;0.68;;;10.10;99.90;;;;;;4429847;32;20120;-64
2023/05/06 03:54:51;;;;;;;0.82;0.82;;;10.10;99.90;;;;;;4430140;32;20077;-63
2023/05/06 03:57:16;;;;;;;0.75;0.75;;;10.10;99.90;;;;;;4429350;32;20082;-64
2023/05/06 03:59:42;;;;;;;4.18;1.02;;;10.10;99.90;;;;;;4428791;32;20540;-64
2023/05/06 04:02:07;;;;;;;0.77;0.77;;;10.00;99.90;;;;;;4428837;32;20065;-65
2023/05/06 04:04:33;;;;;;;2.35;1.17;;;9.90;99.90;;;;;;4430932;32;20124;-63
2023/05/06 04:06:59;;;;;;;0.45;0.45;;;9.80;99.90;;;;;;4429000;32;20078;-63
2023/05/06 04:09:25;;;;;;;0.70;0.70;;;9.80;99.90;;;;;;4429482;32;20094;-63
2023/05/06 04:11:50;;;;;;;3.60;0.98;;;9.90;99.90;;;;;;4429643;32;20132;-63
2023/05/06 04:14:16;;;;;;;0.62;0.62;;;9.80;99.90;;;;;;4429096;32;20073;-63
2023/05/06 04:16:41;;;;;;;0.47;0.47;;;9.80;99.90;;;;;;4427587;32;20073;-63
2023/05/06 04:19:07;;;;;;;4.93;0.60;;;9.90;99.90;;;;;;4430342;32;20061;-63
2023/05/06 04:21:33;;;;;;;0.90;0.57;;;9.70;99.90;;;;;;4429166;32;20097;-63
2023/05/06 04:23:58;;;;;;;4.03;2.25;;;9.70;99.90;;;;;;4427036;32;20131;-65
2023/05/06 04:26:24;;;;;;;0.60;0.60;;;9.70;99.90;;;;;;4428158;32;20070;-63
2023/05/06 04:28:50;;;;;;;0.65;0.65;;;9.70;99.90;;;;;;4429001;32;20078;-63
2023/05/06 04:31:15;;;;;;;0.98;0.93;;;9.70;99.90;;;;;;4435594;32;20136;-64
2023/05/06 04:33:41;;;;;;;0.73;0.70;;;9.70;99.90;;;;;;4432547;32;20078;-63
2023/05/06 04:36:07;;;;;;;0.82;0.82;;;9.60;99.90;;;;;;4429555;32;20085;-63
2023/05/06 04:38:34;;;;;;;0.77;0.70;;;9.60;99.90;;;;;;4430769;32;20113;-65
2023/05/06 04:41:00;;;;;;;0.50;0.50;;;9.70;99.90;;;;;;4431997;32;20077;-64
2023/05/06 04:43:26;;;;;;;3.25;1.00;;;9.70;99.90;;;;;;4432188;32;20074;-63
2023/05/06 04:45:53;;;;;;;1.25;0.70;;;9.70;99.90;;;;;;4433428;32;21006;-64
2023/05/06 04:48:21;;;;;;;0.75;0.75;;;9.60;99.90;;;;;;4433397;32;20124;-63
2023/05/06 04:50:47;;;;;;;1.80;1.05;;;9.70;99.90;;;;;;4434084;32;20139;-64
2023/05/06 04:53:13;;;;;;;6.28;0.70;;;9.60;99.90;;;;;;4430068;32;20065;-63
2023/05/06 04:55:39;;;;;;;0.60;0.60;;;9.60;99.90;;;;;;4429913;32;20105;-63
2023/05/06 04:58:04;;;;;;;0.52;0.52;;;9.60;99.90;;;;;;4431715;32;20081;-63
2023/05/06 05:00:30;;;;;;;5.85;1.27;;;9.70;99.90;;;;;;4428992;32;20084;-63
2023/05/06 05:02:55;;;;;;;0.95;0.62;;;9.60;99.90;;;;;;4437606;32;20161;-64
2023/05/06 05:05:22;;;;;;;2.40;1.30;;;9.70;99.90;;;;;;4431857;32;20085;-63
2023/05/06 05:07:48;;;;;;;0.85;0.85;;;9.60;99.90;;;;;;4431451;32;20084;-64
2023/05/06 05:10:13;;;;;;;0.93;0.88;;;9.50;99.90;;;;;;4430644;32;20438;-64
2023/05/06 05:12:39;;;;;;;4.68;0.65;;;9.60;99.90;;;;;;4428354;32;20093;-63
2023/05/06 05:15:05;;;;;;;0.47;0.47;;;9.50;99.90;;;;;;4429402;32;20085;-64
2023/05/06 05:17:30;;;;;;;3.90;1.33;;;9.60;99.90;;;;;;4433690;32;20081;-64
2023/05/06 05:19:56;;;;;;;0.80;0.70;;;9.60;99.90;;;;;;4431925;32;20089;-64
2023/05/06 05:22:21;;;;;;;8.57;2.65;;;9.70;99.90;;;;;;4431237;32;20108;-63
2023/05/06 05:24:47;;;;;;;6.07;0.50;;;9.70;99.90;;;;;;4430116;32;20544;-64
2023/05/06 05:27:12;;;;;;;0.80;0.80;;;9.60;99.90;;;;;;4432501;32;20468;-65
2023/05/06 05:29:38;;;;;;;1.20;1.10;;;9.60;99.90;;;;;;4431393;32;20131;-64
2023/05/06 05:32:03;;;;;;;2.37;0.50;;;9.70;99.90;;;;;;4434167;32;20258;-64
2023/05/06 05:34:29;;;;;;;0.90;0.85;;;9.70;99.90;;;;;;4431018;32;20159;-65
2023/05/06 05:36:56;;;;;;;1.55;1.17;;;9.60;99.90;;;;;;4436798;32;20661;-64
2023/05/06 05:39:21;;;;;;;0.62;0.62;;;9.70;99.90;;;;;;4429694;32;20089;-64
2023/05/06 05:41:47;;;;;;;1.02;0.70;;;9.70;99.90;;;;;;4431449;32;20132;-65
2023/05/06 05:44:13;;;;;;;0.65;0.65;;;9.70;99.90;;;;;;4428144;32;20456;-64
2023/05/06 05:46:38;;;;;;;0.40;0.40;;;9.60;99.90;;;;;;4429143;32;20077;-64
2023/05/06 05:49:04;;;;;;;3.72;1.30;;;9.60;99.90;;;;;;4432521;32;20119;-64
2023/05/06 05:51:30;;;;;;;0.60;0.60;;;9.60;99.90;;;;;;4433623;32;20313;-64
2023/05/06 05:53:55;;;;;;;0.50;0.50;;;9.60;99.90;;;;;;4431013;32;20534;-63
2023/05/06 05:56:20;;;;;;;0.88;0.82;;;9.50;99.90;;;;;;4428549;32;20064;-64
2023/05/06 05:58:46;;;;;;;0.80;0.80;;;9.50;99.90;;;;;;4431314;32;20443;-64
2023/05/06 06:01:12;;;;;;;0.47;0.47;;;9.50;99.90;;;;;;4432813;32;20517;-66
2023/05/06 06:03:37;;;;;;;0.43;0.43;;;9.50;99.90;;;;;;4429284;32;21514;-64
2023/05/06 06:06:03;;;;;;;2.92;1.62;;;9.50;99.90;;;;;;4431133;32;20456;-64
2023/05/06 06:08:30;;;;;;;1.27;1.00;;;9.40;99.90;;;;;;4431846;32;20092;-64
2023/05/06 06:10:56;;;;;;;0.50;0.50;;;9.50;99.90;;;;;;4431718;32;20081;-64
2023/05/06 06:13:21;;;;;;;2.95;0.88;;;9.50;99.90;;;;;;4431646;32;20541;-65
2023/05/06 06:15:46;;;;;;;1.05;1.05;;;9.50;99.90;;;;;;4431504;32;20518;-65
2023/05/06 06:18:12;;;;;;;0.52;0.52;;;9.50;99.90;;;;;;4431133;32;20080;-64
2023/05/06 06:20:37;;;;;;;0.50;0.50;;;9.50;99.90;;;;;;4432820;32;20598;-63
2023/05/06 06:23:03;;;;;;;20.00;2.58;;;9.50;99.90;;;;;;4436046;32;20056;-64
2023/05/06 06:25:28;;;;;;;1.48;0.85;;;9.60;99.90;;;;;;4432362;32;20112;-64
2023/05/06 06:27:55;;;;;;;0.57;0.57;;;9.60;99.90;;;;;;4433651;32;20081;-65
2023/05/06 06:30:20;;;;;;;1.55;1.25;;;9.70;99.90;;;;;;4431933;32;20081;-65
2023/05/06 06:32:48;;;;;;;8.43;2.90;;;9.70;99.90;;;;;;4429216;32;20590;-64
2023/05/06 06:35:14;;;;;;;2.03;1.20;;;9.60;99.90;;;;;;4430320;32;20057;-64
2023/05/06 06:37:39;;;;;;;1.65;1.15;;;9.60;99.90;;;;;;4423580;32;20528;-65
2023/05/06 06:40:05;;;;;;;1.80;0.90;;;9.60;99.90;;;;;;4428379;32;20097;-65
2023/05/06 06:42:31;;;;;;;0.62;0.62;;;9.70;99.90;;;;;;4429369;32;20528;-64
2023/05/06 06:44:56;;;;;;;1.67;0.88;;;9.70;99.90;;;;;;4430595;32;20088;-64
2023/05/06 06:47:22;;;;;;;27.05;2.70;;;9.70;99.90;;;;;;4427995;32;20084;-65
2023/05/06 06:49:47;;;;;;;0.50;0.50;;;9.70;99.90;;;;;;4432671;32;20061;-65
2023/05/06 06:52:13;;;;;;;0.43;0.43;;;9.80;99.90;;;;;;4430959;32;20065;-64
2023/05/06 06:54:38;;;;;;;0.50;0.50;;;9.80;99.90;;;;;;4433076;32;20068;-64
2023/05/06 06:57:05;;;;;;;0.50;0.50;;;9.70;99.90;;;;;;4432851;32;20064;-64
2023/05/06 06:59:31;;;;;;;23.10;1.00;;;9.70;99.90;;;;;;4433048;32;20069;-64
2023/05/06 07:01:56;;;;;;;0.40;0.40;;;9.70;99.90;;;;;;4431987;32;20070;-64
2023/05/06 07:04:23;;;;;;;5.85;1.08;;;9.70;99.90;;;;;;4429984;32;20550;-65
2023/05/06 07:06:49;;;;;;;0.40;0.40;;;9.80;99.90;;;;;;4430928;32;20426;-64
2023/05/06 07:09:15;;;;;;;1.80;0.93;;;9.80;99.90;;;;;;4429902;32;20078;-64
2023/05/06 07:11:41;;;;;;;0.52;0.52;;;9.80;99.90;;;;;;4429987;32;20065;-63
2023/05/06 07:14:07;;;;;;;1.30;0.68;;;9.80;99.90;;;;;;4431345;32;20077;-64
2023/05/06 07:16:32;;;;;;;3.33;1.95;;;9.80;99.90;;;;;;4428389;32;20482;-64
2023/05/06 07:18:59;;;;;;;0.70;0.70;;;9.80;99.90;;;;;;4430476;32;20422;-63
2023/05/06 07:21:26;;;;;;;0.88;0.70;;;9.80;99.90;;;;;;4426027;32;20434;-64
2023/05/06 07:23:51;;;;;;;0.60;0.60;;;9.80;99.90;;;;;;4428405;32;20073;-63
2023/05/06 07:26:17;;;;;;;1.17;1.12;;;9.90;99.90;;;;;;4429972;32;20124;-63
2023/05/06 07:28:43;;;;;;;4.80;1.20;;;9.80;99.90;;;;;;4428967;32;20386;-63
2023/05/06 07:31:08;;;;;;;1.02;0.98;;;9.70;99.90;;;;;;4431258;32;20164;-64
2023/05/06 07:33:34;;;;;;;1.25;0.95;;;9.80;99.90;;;;;;4433495;32;20524;-64
2023/05/06 07:35:59;;;;;;;1.08;0.60;;;9.80;99.90;;;;;;4430262;32;20853;-64
2023/05/06 07:38:25;;;;;;;1.27;1.00;;;9.80;99.90;;;;;;4430864;32;20120;-63
2023/05/06 07:40:50;;;;;;;0.70;0.70;;;9.90;99.90;;;;;;4428217;32;20073;-65
2023/05/06 07:43:16;;;;;;;0.70;0.70;;;9.90;99.90;;;;;;4433905;32;20077;-63
2023/05/06 07:45:41;;;;;;;1.15;1.00;;;10.00;99.90;;;;;;4425564;32;20123;-64
2023/05/06 07:48:07;;;;;;;0.60;0.60;;;10.00;99.90;;;;;;4428729;32;20135;-63
2023/05/06 07:50:33;;;;;;;0.50;0.50;;;9.90;99.90;;;;;;4428942;32;20065;-65
2023/05/06 07:52:59;;;;;;;1.87;0.90;;;9.80;99.90;;;;;;4431615;32;20072;-64
2023/05/06 07:55:24;;;;;;;0.75;0.75;;;9.90;99.90;;;;;;4432667;32;20073;-64
2023/05/06 07:57:50;;;;;;;0.82;0.82;;;10.00;99.90;;;;;;4429969;32;20076;-64
2023/05/06 08:00:16;;;;;;;0.80;0.80;;;9.90;99.90;;;;;;4430440;32;20058;-63
2023/05/06 08:02:43;;;;;;;2.42;0.88;;;10.00;99.90;;;;;;4431512;32;20081;-63
2023/05/06 08:05:09;;;;;;;9.05;0.95;;;10.00;99.90;;;;;;4432244;32;20603;-63
2023/05/06 08:07:35;;;;;;;0.47;0.47;;;10.00;99.90;;;;;;4429412;32;20560;-63
2023/05/06 08:10:01;;;;;;;1.30;0.77;;;10.00;99.90;;;;;;4432091;32;20474;-63
2023/05/06 08:12:27;;;;;;;0.40;0.40;;;10.10;99.90;;;;;;4425007;32;20073;-64
2023/05/06 08:14:53;;;;;;;1.75;0.90;;;10.10;99.90;;;;;;4434783;32;20073;-63
2023/05/06 08:17:19;;;;;;;0.62;0.62;;;10.00;99.90;;;;;;4430423;32;20073;-64
2023/05/06 08:19:45;;;;;;;0.75;0.75;;;10.00;99.90;;;;;;4435178;32;20115;-65
2023/05/06 08:22:11;;;;;;;6.00;0.80;;;9.90;99.90;;;;;;4432617;32;20057;-64
2023/05/06 08:24:36;;;;;;;2.53;0.60;;;10.00;99.90;;;;;;4432553;32;20519;-65
2023/05/06 08:27:02;;;;;;;0.75;0.75;;;10.00;99.90;;;;;;4430660;32;20074;-64
2023/05/06 08:29:27;;;;;;;0.75;0.75;;;10.10;99.90;;;;;;4433984;32;20069;-64
2023/05/06 08:31:53;;;;;;;3.78;1.60;;;10.00;99.90;;;;;;4434419;32;20065;-64
2023/05/06 08:34:20;;;;;;;2.70;0.73;;;10.00;99.90;;;;;;4434020;32;20800;-65
2023/05/06 08:36:47;;;;;;;0.47;0.47;;;10.00;99.90;;;;;;4432647;32;20081;-64
2023/05/06 08:39:14;;;;;;;1.20;0.88;;;10.00;99.90;;;;;;4434825;32;20411;-64
2023/05/06 08:41:40;;;;;;;1.40;1.00;;;10.00;99.90;;;;;;4431548;32;20089;-64
2023/05/06 08:44:07;;;;;;;1.25;1.00;;;10.00;99.90;;;;;;4437881;32;20152;-64
2023/05/06 08:46:33;;;;;;;0.60;0.60;;;10.00;99.90;;;;;;4433625;32;20062;-64
2023/05/06 08:48:58;;;;;;;1.10;1.02;;;10.10;99.90;;;;;;4435046;32;20398;-63
2023/05/06 08:51:27;;;;;;;0.70;0.70;;;10.10;99.90;;;;;;4434986;32;20085;-65
2023/05/06 08:53:53;;;;;;;0.60;0.60;;;10.10;99.90;;;;;;4434358;32;20130;-63
2023/05/06 08:56:23;;;;;;;3.20;0.70;;;10.10;99.90;;;;;;4434732;32;20057;-63
2023/05/06 08:58:50;;;;;;;1.40;1.23;;;10.00;99.90;;;;;;4430963;32;20069;-63
2023/05/06 09:01:16;;;;;;;0.80;0.77;;;10.00;99.90;;;;;;4431905;32;20064;-63
2023/05/06 09:03:42;;;;;;;0.88;0.80;;;10.00;99.90;;;;;;4431085;32;20160;-64
2023/05/06 09:06:09;;;;;;;1.05;0.75;;;9.90;99.90;;;;;;4426256;32;20066;-64
2023/05/06 09:08:35;;;;;;;0.82;0.80;;;9.90;99.90;;;;;;4433149;32;20061;-64
2023/05/06 09:11:00;;;;;;;0.60;0.60;;;10.00;99.90;;;;;;4431708;32;20064;-64
2023/05/06 09:13:26;;;;;;;0.68;0.68;;;10.10;99.90;;;;;;4430845;32;20469;-64
2023/05/06 09:15:53;;;;;;;0.80;0.80;;;10.20;99.90;;;;;;4431539;32;20188;-63
2023/05/06 09:18:18;;;;;;;1.23;0.95;;;10.20;99.90;;;;;;4435263;32;20488;-63
2023/05/06 09:20:47;;;;;;;0.60;0.60;;;10.20;99.90;;;;;;4432145;32;20097;-63
2023/05/06 09:23:14;;;;;;;3.70;0.98;;;10.20;99.90;;;;;;4431299;32;20064;-64
2023/05/06 09:25:41;;;;;;;1.17;0.98;;;10.10;99.90;;;;;;4428924;32;20093;-63
2023/05/06 09:28:09;;;;;;;0.65;0.65;;;10.10;99.90;;;;;;4431918;32;20465;-63
2023/05/06 09:30:40;;;;;;;9.00;1.85;;;10.10;99.90;;;;;;4431024;32;20061;-63
2023/05/06 09:33:06;;;;;;;1.90;1.25;;;10.20;99.90;;;;;;4431133;32;20557;-64
2023/05/06 09:35:36;;;;;;;0.75;0.65;;;10.10;99.90;;;;;;4431742;32;20097;-64
2023/05/06 09:38:02;;;;;;;0.70;0.70;;;10.20;99.90;;;;;;4430978;32;20119;-63
2023/05/06 09:40:28;;;;;;;0.93;0.60;;;10.10;99.90;;;;;;4432335;32;20069;-64
2023/05/06 09:42:55;;;;;;;1.00;1.00;;;10.10;99.90;;;;;;4431679;32;20085;-64
2023/05/06 09:45:21;;;;;;;7.65;2.35;;;10.20;99.90;;;;;;4431757;32;20058;-63
2023/05/06 09:47:48;;;;;;;5.22;0.68;;;10.20;99.90;;;;;;4428788;32;20088;-65
2023/05/06 09:50:15;;;;;;;1.55;0.60;;;10.20;99.90;;;;;;4431413;32;20062;-63
2023/05/06 09:52:43;;;;;;;0.60;0.60;;;10.20;99.90;;;;;;4422774;32;20108;-63
2023/05/06 09:55:10;;;;;;;2.75;1.20;;;10.30;99.90;;;;;;4431216;32;20088;-63
2023/05/06 09:57:37;;;;;;;2.28;0.80;;;10.30;99.90;;;;;;4428498;32;20139;-64
2023/05/06 10:00:05;;;;;;;0.52;0.52;;;10.20;99.90;;;;;;4432513;32;20082;-65
2023/05/06 10:02:32;;;;;;;0.68;0.68;;;10.20;99.90;;;;;;4431181;32;20505;-65
2023/05/06 10:04:58;;;;;;;0.60;0.60;;;10.20;99.90;;;;;;4428838;32;20851;-62
2023/05/06 10:07:27;;;;;;;5.20;2.15;;;10.20;99.90;;;;;;4428382;32;20140;-62
2023/05/06 10:09:53;;;;;;;1.77;0.88;;;10.20;99.90;;;;;;4434319;32;20073;-64
2023/05/06 10:12:19;;;;;;;1.08;0.70;;;10.30;99.90;;;;;;4435179;32;20452;-65
2023/05/06 10:14:44;;;;;;;1.23;1.00;;;10.40;99.90;;;;;;4429319;32;20061;-64
2023/05/06 10:17:11;;;;;;;0.50;0.50;;;10.40;99.90;;;;;;4429327;32;20093;-65
2023/05/06 10:19:41;;;;;;;0.55;0.55;;;10.40;99.90;;;;;;4434020;32;20070;-66
2023/05/06 10:22:29;;;;;;;7.62;0.80;;;10.50;99.90;;;;;;4432904;32;20065;-64
2023/05/06 10:25:02;;;;;;;0.52;0.52;;;10.50;99.90;;;;;;4430408;32;20155;-64
2023/05/06 10:27:31;;;;;;;0.57;0.57;;;10.40;99.90;;;;;;4424166;32;20101;-64
2023/05/06 10:29:59;;;;;;;0.90;0.88;;;10.40;99.90;;;;;;4429279;32;20089;-64
2023/05/06 10:32:29;;;;;;;1.33;0.85;;;10.50;99.90;;;;;;4429760;32;20568;-65
2023/05/06 10:34:58;;;;;;;0.60;0.60;;;10.40;99.90;;;;;;4431389;32;20586;-64
2023/05/06 10:37:27;;;;;;;1.62;0.62;;;10.50;99.90;;;;;;4430192;32;20069;-65
2023/05/06 10:39:54;;;;;;;1.45;0.65;;;10.40;99.90;;;;;;4430496;32;20065;-63
2023/05/06 10:42:19;;;;;;;0.82;0.80;;;10.40;99.90;;;;;;4429115;32;20524;-64
2023/05/06 10:45:05;;;;;;;1.40;0.70;;;10.40;99.90;;;;;;4430727;32;20110;-64
2023/05/06 10:47:55;;;;;;;0.40;0.40;;;10.50;99.90;;;;;;4425239;32;20069;-64
2023/05/06 10:50:22;;;;;;;0.47;0.47;;;10.50;99.90;;;;;;4425778;32;20072;-65
2023/05/06 10:52:57;;;;;;;0.68;0.68;;;10.50;99.90;;;;;;4430888;32;20105;-64
2023/05/06 10:55:26;;;;;;;0.62;0.62;;;10.50;99.90;;;;;;4430551;32;20168;-66
2023/05/06 10:58:02;;;;;;;4.03;1.85;;;10.50;99.90;;;;;;4431374;32;20147;-64
2023/05/06 11:00:31;;;;;;;3.97;0.90;;;10.40;99.90;;;;;;4430501;32;20073;-65
2023/05/06 11:02:59;;;;;;;1.85;0.70;;;10.40;99.90;;;;;;4430347;32;20119;-64
2023/05/06 11:05:25;;;;;;;0.75;0.75;;;10.50;99.90;;;;;;4414787;32;20542;-65
2023/05/06 11:07:52;;;;;;;1.30;0.60;;;10.50;99.90;;;;;;4422502;32;20073;-65
2023/05/06 11:10:31;;;;;;;4.07;0.85;;;10.60;99.90;;;;;;4423253;32;20090;-64
2023/05/06 11:12:59;;;;;;;1.77;1.02;;;10.60;99.90;;;;;;4422785;32;20551;-64
2023/05/06 11:15:36;;;;;;;1.58;1.27;;;10.60;99.90;;;;;;4428522;32;20101;-64
2023/05/06 11:18:28;;;;;;;0.73;0.73;;;10.50;99.90;;;;;;4427450;32;20101;-64
2023/05/06 11:21:03;;;;;;;11.05;1.48;;;10.50;99.90;;;;;;4422935;32;20126;-64
2023/05/06 11:23:48;;;;;;;0.73;0.73;;;10.60;99.90;;;;;;4427747;32;20093;-65
2023/05/06 11:26:14;;;;;;;0.73;0.73;;;10.60;99.90;;;;;;4421576;32;20544;-65
2023/05/06 11:28:44;;;;;;;0.60;0.60;;;10.50;99.90;;;;;;4428973;32;20081;-64
2023/05/06 11:31:11;;;;;;;0.75;0.75;;;10.50;99.90;;;;;;4426734;32;20090;-64
2023/05/06 11:33:40;;;;;;;0.80;0.68;;;10.50;99.90;;;;;;4425461;32;21783;-65
2023/05/06 11:36:13;;;;;;;1.00;0.77;;;10.60;99.90;;;;;;4427114;32;20082;-65
2023/05/06 11:38:55;;;;;;;0.80;0.80;;;10.50;99.90;;;;;;4428099;32;20113;-64
2023/05/06 11:41:22;;;;;;;1.02;1.02;;;10.40;99.90;;;;;;4427118;32;20085;-64
2023/05/06 11:43:48;;;;;;;0.50;0.50;;;10.40;99.90;;;;;;4421274;32;128847;-64
2023/05/06 11:46:14;;;;;;;2.00;1.23;;;10.50;99.90;;;;;;4432277;32;20085;-64
2023/05/06 11:48:42;;;;;;;1.58;0.70;;;10.50;99.90;;;;;;4429938;32;20067;-65
2023/05/06 11:51:08;;;;;;;0.60;0.60;;;10.50;99.90;;;;;;4430312;32;20097;-65
2023/05/06 11:53:33;;;;;;;7.12;0.80;;;10.40;99.90;;;;;;4427166;32;20108;-65
2023/05/06 11:55:59;;;;;;;0.60;0.60;;;10.40;99.90;;;;;;4424577;32;20093;-64
2023/05/06 11:58:26;;;;;;;0.50;0.50;;;10.40;99.90;;;;;;4428981;32;20127;-63
2023/05/06 12:00:55;;;;;;;0.60;0.60;;;10.40;99.90;;;;;;4427919;32;20093;-63
2023/05/06 12:03:22;;;;;;;0.65;0.65;;;10.40;99.90;;;;;;4428434;32;20151;-63
2023/05/06 12:05:49;;;;;;;0.50;0.50;;;10.30;99.90;;;;;;4427972;32;20433;-65
2023/05/06 12:08:16;;;;;;;0.80;0.50;;;10.30;99.90;;;;;;4426762;32;20057;-64
2023/05/06 12:10:41;;;;;;;0.50;0.50;;;10.30;99.90;;;;;;4425897;32;20521;-63
2023/05/06 12:13:10;;;;;;;0.65;0.65;;;10.40;99.90;;;;;;4425310;32;20093;-63
2023/05/06 12:15:35;;;;;;;0.60;0.60;;;10.40;99.90;;;;;;4428440;32;20567;-64
2023/05/06 12:18:01;;;;;;;0.80;0.55;;;10.40;99.90;;;;;;4428557;32;20176;-63
2023/05/06 12:20:27;;;;;;;1.60;1.05;;;10.40;99.90;;;;;;4429217;32;20120;-63
2023/05/06 12:23:10;;;;;;;0.60;0.60;;;10.40;99.90;;;;;;4422659;32;20081;-65
2023/05/06 12:25:37;;;;;;;0.47;0.47;;;10.30;99.90;;;;;;4424945;32;20567;-64
2023/05/06 12:28:17;;;;;;;0.47;0.40;;;10.30;99.90;;;;;;4432440;32;20106;-68
2023/05/06 12:30:43;;;;;;;1.10;0.87;;;10.40;99.90;;;;;;4429909;32;20485;-66
2023/05/06 12:33:10;;;;;;;0.65;0.60;;;10.40;99.90;;;;;;4423525;32;20109;-66
2023/05/06 12:35:36;;;;;;;2.08;0.60;;;10.40;99.90;;;;;;4427253;32;20089;-67
2023/05/06 12:38:10;;;;;;;1.77;0.90;;;10.40;99.90;;;;;;4428079;32;20099;-66
2023/05/06 12:40:36;;;;;;;0.40;0.40;;;10.30;99.90;;;;;;4428797;32;20097;-67
2023/05/06 12:43:02;;;;;;;0.47;0.47;;;10.20;99.90;;;;;;4429158;32;20101;-66
2023/05/06 12:45:28;;;;;;;0.47;0.47;;;10.10;99.90;;;;;;4429111;32;20073;-67
2023/05/06 12:47:54;;;;;;;0.40;0.40;;;10.20;99.90;;;;;;4428628;32;20475;-66
2023/05/06 12:50:41;;;;;;;0.50;0.50;;;10.30;99.90;;;;;;4423866;32;20544;-66